Terminal Aerodrome Forecast
Issued by NWS Portland, OR

Home | Current Version | Previous Version | Text Only | Print | Product List | Glossary On
Versions: 1 2 3 4 5 6 7 8 9 10 11 12 13 14 15 16 17 18 19 20 21 22 23 24 25 26 27 28 29 30 31 32 33
000
FTUS46 KPQR 040550
TAFAST
TAF
KAST 040550Z 0406/0506 12003KT P6SM FEW250
     FM041100 12003KT 6SM BR SCT002
     FM041400 VRB02KT P6SM FEW250
     FM042000 01007KT P6SM FEW250=

USA.gov is the U.S. government's official web portal to all federal, state and local government web resources and services.